Weather at Jersey Airport

Public forecast

Using degrees Celsius for public forecast. Weather courtesy of forecast.io.

Current aviation weather report (METAR) for Jersey Airport

Retrieved 2020/10/19 21:20 UTC (0 seconds ago):

EGJJ 192120Z AUTO 15018KT 9999 NCD 14/10 Q1004

Closest aviation forecast (TAF) to Jersey Airport

Closest forecast is Dinard-Pleurtuit-Saint-Malo Airport, 37.5 nm (69.5 km) S. Retrieved 2020/10/19 18:21 UTC (3 hours ago):

TAF LFRD 191700Z 1918/2018 14015G25KT CAVOK BECMG 1921/1924 -RA BKN013 TEMPO 2003/2006 3000 OVC007 BECMG 2007/2009 NSW SCT015